sensor_id;sensor_type;location;lat;lon;timestamp;temperature;humidity
36132;DHT22;22185;48.738;9.324;2023-02-11T00:00:24;-1.70;99.90
36132;DHT22;22185;48.738;9.324;2023-02-11T00:02:26;-1.70;99.90
36132;DHT22;22185;48.738;9.324;2023-02-11T00:04:30;-1.80;99.90
36132;DHT22;22185;48.738;9.324;2023-02-11T00:06:32;-1.80;99.90
36132;DHT22;22185;48.738;9.324;2023-02-11T00:08:35;-1.80;99.90
36132;DHT22;22185;48.738;9.324;2023-02-11T00:10:37;-1.80;99.90
36132;DHT22;22185;48.738;9.324;2023-02-11T00:12:38;-1.80;99.90
36132;DHT22;22185;48.738;9.324;2023-02-11T00:14:40;-1.90;99.90
36132;DHT22;22185;48.738;9.324;2023-02-11T00:16:42;-1.90;99.90
36132;DHT22;22185;48.738;9.324;2023-02-11T00:18:44;-1.80;99.90
36132;DHT22;22185;48.738;9.324;2023-02-11T00:20:45;-1.90;99.90
36132;DHT22;22185;48.738;9.324;2023-02-11T00:22:47;-1.90;99.90
36132;DHT22;22185;48.738;9.324;2023-02-11T00:24:49;-1.90;99.90
36132;DHT22;22185;48.738;9.324;2023-02-11T00:26:51;-1.90;99.90
36132;DHT22;22185;48.738;9.324;2023-02-11T00:28:52;-1.90;99.90
36132;DHT22;22185;48.738;9.324;2023-02-11T00:30:57;-2.00;99.90
36132;DHT22;22185;48.738;9.324;2023-02-11T00:32:59;-2.00;99.90
36132;DHT22;22185;48.738;9.324;2023-02-11T00:35:01;-2.00;99.90
36132;DHT22;22185;48.738;9.324;2023-02-11T00:37:02;-2.00;99.90
36132;DHT22;22185;48.738;9.324;2023-02-11T00:39:05;-2.00;99.90
36132;DHT22;22185;48.738;9.324;2023-02-11T00:41:07;-2.00;99.90
36132;DHT22;22185;48.738;9.324;2023-02-11T00:43:09;-2.10;99.90
36132;DHT22;22185;48.738;9.324;2023-02-11T00:45:10;-2.00;99.90
36132;DHT22;22185;48.738;9.324;2023-02-11T00:47:12;-2.00;99.90
36132;DHT22;22185;48.738;9.324;2023-02-11T00:49:14;-2.10;99.90
36132;DHT22;22185;48.738;9.324;2023-02-11T00:51:16;-2.20;99.90
36132;DHT22;22185;48.738;9.324;2023-02-11T00:53:18;-2.20;99.90
36132;DHT22;22185;48.738;9.324;2023-02-11T00:55:19;-2.10;99.90
36132;DHT22;22185;48.738;9.324;2023-02-11T00:57:21;-2.20;99.90
36132;DHT22;22185;48.738;9.324;2023-02-11T00:59:23;-2.20;99.90
36132;DHT22;22185;48.738;9.324;2023-02-11T01:01:24;-2.20;99.90
36132;DHT22;22185;48.738;9.324;2023-02-11T01:03:26;-2.20;99.90
36132;DHT22;22185;48.738;9.324;2023-02-11T01:05:28;-2.20;99.90
36132;DHT22;22185;48.738;9.324;2023-02-11T01:07:30;-2.20;99.90
36132;DHT22;22185;48.738;9.324;2023-02-11T01:09:31;-2.20;99.90
36132;DHT22;22185;48.738;9.324;2023-02-11T01:11:33;-2.20;99.90
36132;DHT22;22185;48.738;9.324;2023-02-11T01:13:35;-2.20;99.90
36132;DHT22;22185;48.738;9.324;2023-02-11T01:15:37;-2.20;99.90
36132;DHT22;22185;48.738;9.324;2023-02-11T01:17:39;-2.30;99.90
36132;DHT22;22185;48.738;9.324;2023-02-11T01:19:41;-2.30;99.90
36132;DHT22;22185;48.738;9.324;2023-02-11T01:21:42;-2.30;99.90
36132;DHT22;22185;48.738;9.324;2023-02-11T01:23:44;-2.30;99.90
36132;DHT22;22185;48.738;9.324;2023-02-11T01:25:46;-2.30;99.90
36132;DHT22;22185;48.738;9.324;2023-02-11T01:27:48;-2.30;99.90
36132;DHT22;22185;48.738;9.324;2023-02-11T01:29:49;-2.30;99.90
36132;DHT22;22185;48.738;9.324;2023-02-11T01:31:51;-2.40;99.90
36132;DHT22;22185;48.738;9.324;2023-02-11T01:33:53;-2.40;99.90
36132;DHT22;22185;48.738;9.324;2023-02-11T01:35:58;-2.40;99.90
36132;DHT22;22185;48.738;9.324;2023-02-11T01:38:00;-2.40;99.90
36132;DHT22;22185;48.738;9.324;2023-02-11T01:40:03;-2.40;99.90
36132;DHT22;22185;48.738;9.324;2023-02-11T01:42:05;-2.40;99.90
36132;DHT22;22185;48.738;9.324;2023-02-11T01:46:28;-2.50;99.90
36132;DHT22;22185;48.738;9.324;2023-02-11T01:48:33;-2.40;99.90
36132;DHT22;22185;48.738;9.324;2023-02-11T01:50:36;-2.50;99.90
36132;DHT22;22185;48.738;9.324;2023-02-11T01:52:40;-2.50;99.90
36132;DHT22;22185;48.738;9.324;2023-02-11T01:54:44;-2.50;99.90
36132;DHT22;22185;48.738;9.324;2023-02-11T01:57:05;-2.50;99.90
36132;DHT22;22185;48.738;9.324;2023-02-11T01:59:27;-2.40;99.90
36132;DHT22;22185;48.738;9.324;2023-02-11T02:01:30;-2.40;99.90
36132;DHT22;22185;48.738;9.324;2023-02-11T02:03:35;-2.50;99.90
36132;DHT22;22185;48.738;9.324;2023-02-11T02:10:02;-2.50;99.90
36132;DHT22;22185;48.738;9.324;2023-02-11T02:12:05;-2.50;99.90
36132;DHT22;22185;48.738;9.324;2023-02-11T02:14:06;-2.50;99.90
36132;DHT22;22185;48.738;9.324;2023-02-11T02:16:12;-2.50;99.90
36132;DHT22;22185;48.738;9.324;2023-02-11T02:22:55;-2.40;99.90
36132;DHT22;22185;48.738;9.324;2023-02-11T02:34:05;-2.40;99.90
36132;DHT22;22185;48.738;9.324;2023-02-11T02:38:24;-2.30;99.90
36132;DHT22;22185;48.738;9.324;2023-02-11T02:40:30;-2.40;99.90
36132;DHT22;22185;48.738;9.324;2023-02-11T02:42:33;-2.40;99.90
36132;DHT22;22185;48.738;9.324;2023-02-11T02:44:35;-2.40;99.90
36132;DHT22;22185;48.738;9.324;2023-02-11T02:46:37;-2.30;99.90
36132;DHT22;22185;48.738;9.324;2023-02-11T02:48:39;-2.30;99.90
36132;DHT22;22185;48.738;9.324;2023-02-11T02:50:40;-2.30;99.90
36132;DHT22;22185;48.738;9.324;2023-02-11T02:52:57;-2.20;99.90
36132;DHT22;22185;48.738;9.324;2023-02-11T03:01:26;-2.30;99.90
36132;DHT22;22185;48.738;9.324;2023-02-11T03:03:41;-2.20;99.90
36132;DHT22;22185;48.738;9.324;2023-02-11T03:08:02;-2.30;99.90
36132;DHT22;22185;48.738;9.324;2023-02-11T03:10:26;-2.20;99.90
36132;DHT22;22185;48.738;9.324;2023-02-11T03:12:29;-2.20;99.90
36132;DHT22;22185;48.738;9.324;2023-02-11T03:14:32;-2.20;99.90
36132;DHT22;22185;48.738;9.324;2023-02-11T03:16:36;-2.10;99.90
36132;DHT22;22185;48.738;9.324;2023-02-11T03:18:40;-2.10;99.90
36132;DHT22;22185;48.738;9.324;2023-02-11T03:20:43;-2.20;99.90
36132;DHT22;22185;48.738;9.324;2023-02-11T03:22:47;-2.20;99.90
36132;DHT22;22185;48.738;9.324;2023-02-11T03:24:51;-2.20;99.90
36132;DHT22;22185;48.738;9.324;2023-02-11T03:26:54;-2.20;99.90
36132;DHT22;22185;48.738;9.324;2023-02-11T03:33:02;-1.90;99.90
36132;DHT22;22185;48.738;9.324;2023-02-11T03:35:26;-1.80;99.90
36132;DHT22;22185;48.738;9.324;2023-02-11T03:39:35;-1.60;99.90
36132;DHT22;22185;48.738;9.324;2023-02-11T03:41:38;-1.70;99.90
36132;DHT22;22185;48.738;9.324;2023-02-11T03:43:43;-1.90;99.90
36132;DHT22;22185;48.738;9.324;2023-02-11T03:45:46;-1.90;99.90
36132;DHT22;22185;48.738;9.324;2023-02-11T03:48:05;-1.90;99.90
36132;DHT22;22185;48.738;9.324;2023-02-11T03:50:09;-1.90;99.90
36132;DHT22;22185;48.738;9.324;2023-02-11T03:52:12;-1.90;99.90
36132;DHT22;22185;48.738;9.324;2023-02-11T03:54:15;-1.80;99.90
36132;DHT22;22185;48.738;9.324;2023-02-11T03:56:19;-1.80;99.90
36132;DHT22;22185;48.738;9.324;2023-02-11T03:58:22;-1.70;99.90
36132;DHT22;22185;48.738;9.324;2023-02-11T04:00:30;-1.60;99.90
36132;DHT22;22185;48.738;9.324;2023-02-11T04:02:33;-1.60;99.90
36132;DHT22;22185;48.738;9.324;2023-02-11T04:04:35;-1.60;99.90
36132;DHT22;22185;48.738;9.324;2023-02-11T04:06:38;-1.60;99.90
36132;DHT22;22185;48.738;9.324;2023-02-11T04:08:39;-1.50;99.90
36132;DHT22;22185;48.738;9.324;2023-02-11T04:10:41;-1.50;99.90
36132;DHT22;22185;48.738;9.324;2023-02-11T04:12:43;-1.50;99.90
36132;DHT22;22185;48.738;9.324;2023-02-11T04:14:44;-1.50;99.90
36132;DHT22;22185;48.738;9.324;2023-02-11T04:16:46;-1.50;99.90
36132;DHT22;22185;48.738;9.324;2023-02-11T04:18:48;-1.50;99.90
36132;DHT22;22185;48.738;9.324;2023-02-11T04:20:49;-1.50;99.90
36132;DHT22;22185;48.738;9.324;2023-02-11T04:22:51;-1.50;99.90
36132;DHT22;22185;48.738;9.324;2023-02-11T04:24:53;-1.50;99.90
36132;DHT22;22185;48.738;9.324;2023-02-11T04:26:54;-1.40;99.90
36132;DHT22;22185;48.738;9.324;2023-02-11T04:28:56;-1.30;99.90
36132;DHT22;22185;48.738;9.324;2023-02-11T04:30:58;-1.30;99.90
36132;DHT22;22185;48.738;9.324;2023-02-11T04:32:59;-1.20;99.90
36132;DHT22;22185;48.738;9.324;2023-02-11T04:35:01;-1.20;99.90
36132;DHT22;22185;48.738;9.324;2023-02-11T04:37:03;-1.10;99.90
36132;DHT22;22185;48.738;9.324;2023-02-11T04:39:05;-1.10;99.90
36132;DHT22;22185;48.738;9.324;2023-02-11T04:41:07;-1.00;99.90
36132;DHT22;22185;48.738;9.324;2023-02-11T04:43:09;-1.00;99.90
36132;DHT22;22185;48.738;9.324;2023-02-11T04:45:10;-1.00;99.90
36132;DHT22;22185;48.738;9.324;2023-02-11T04:47:12;-0.90;99.90
36132;DHT22;22185;48.738;9.324;2023-02-11T04:49:16;-0.90;99.90
36132;DHT22;22185;48.738;9.324;2023-02-11T04:51:17;-0.90;99.90
36132;DHT22;22185;48.738;9.324;2023-02-11T04:53:19;-0.90;99.90
36132;DHT22;22185;48.738;9.324;2023-02-11T04:55:21;-0.90;99.90
36132;DHT22;22185;48.738;9.324;2023-02-11T04:57:23;-0.90;99.90
36132;DHT22;22185;48.738;9.324;2023-02-11T04:59:24;-0.80;99.90
36132;DHT22;22185;48.738;9.324;2023-02-11T05:01:26;-0.80;99.90
36132;DHT22;22185;48.738;9.324;2023-02-11T05:03:28;-0.80;99.90
36132;DHT22;22185;48.738;9.324;2023-02-11T05:05:30;-0.70;99.90
36132;DHT22;22185;48.738;9.324;2023-02-11T05:07:32;-0.70;99.90
36132;DHT22;22185;48.738;9.324;2023-02-11T05:09:33;-0.70;99.90
36132;DHT22;22185;48.738;9.324;2023-02-11T05:11:35;-0.80;99.90
36132;DHT22;22185;48.738;9.324;2023-02-11T05:13:37;-0.70;99.90
36132;DHT22;22185;48.738;9.324;2023-02-11T05:15:38;-0.70;99.90
36132;DHT22;22185;48.738;9.324;2023-02-11T05:17:40;-0.60;99.90
36132;DHT22;22185;48.738;9.324;2023-02-11T05:19:42;-0.60;99.90
36132;DHT22;22185;48.738;9.324;2023-02-11T05:21:43;-0.70;99.90
36132;DHT22;22185;48.738;9.324;2023-02-11T05:24:02;-0.50;99.90
36132;DHT22;22185;48.738;9.324;2023-02-11T05:26:04;-0.50;99.90
36132;DHT22;22185;48.738;9.324;2023-02-11T05:28:06;-0.50;99.90
36132;DHT22;22185;48.738;9.324;2023-02-11T05:30:08;-0.50;99.90
36132;DHT22;22185;48.738;9.324;2023-02-11T05:32:10;-0.50;99.90
36132;DHT22;22185;48.738;9.324;2023-02-11T05:34:12;-0.50;99.90
36132;DHT22;22185;48.738;9.324;2023-02-11T05:36:14;-0.40;99.90
36132;DHT22;22185;48.738;9.324;2023-02-11T05:38:17;-0.40;99.90
36132;DHT22;22185;48.738;9.324;2023-02-11T05:40:18;-0.60;99.90
36132;DHT22;22185;48.738;9.324;2023-02-11T05:42:20;-0.50;99.90
36132;DHT22;22185;48.738;9.324;2023-02-11T05:44:22;-0.40;99.90
36132;DHT22;22185;48.738;9.324;2023-02-11T05:46:23;-0.50;99.90
36132;DHT22;22185;48.738;9.324;2023-02-11T05:48:25;-0.50;99.90
36132;DHT22;22185;48.738;9.324;2023-02-11T05:50:27;-0.40;99.90
36132;DHT22;22185;48.738;9.324;2023-02-11T05:52:28;-0.40;99.90
36132;DHT22;22185;48.738;9.324;2023-02-11T05:54:30;-0.30;99.90
36132;DHT22;22185;48.738;9.324;2023-02-11T05:56:32;-0.30;99.90
36132;DHT22;22185;48.738;9.324;2023-02-11T05:58:34;-0.20;99.90
36132;DHT22;22185;48.738;9.324;2023-02-11T06:00:35;-0.30;99.90
36132;DHT22;22185;48.738;9.324;2023-02-11T06:02:37;-0.40;99.90
36132;DHT22;22185;48.738;9.324;2023-02-11T06:04:39;-0.40;99.90
36132;DHT22;22185;48.738;9.324;2023-02-11T06:06:41;-0.30;99.90
36132;DHT22;22185;48.738;9.324;2023-02-11T06:08:43;-0.30;99.90
36132;DHT22;22185;48.738;9.324;2023-02-11T06:10:45;-0.30;99.90
36132;DHT22;22185;48.738;9.324;2023-02-11T06:12:47;-0.40;99.90
36132;DHT22;22185;48.738;9.324;2023-02-11T06:14:48;-0.30;99.90
36132;DHT22;22185;48.738;9.324;2023-02-11T06:16:50;-0.40;99.90
36132;DHT22;22185;48.738;9.324;2023-02-11T06:18:51;-0.30;99.90
36132;DHT22;22185;48.738;9.324;2023-02-11T06:20:53;-0.20;99.90
36132;DHT22;22185;48.738;9.324;2023-02-11T06:22:55;-0.30;99.90
36132;DHT22;22185;48.738;9.324;2023-02-11T06:24:57;-0.30;99.90
36132;DHT22;22185;48.738;9.324;2023-02-11T06:27:03;-0.30;99.90
36132;DHT22;22185;48.738;9.324;2023-02-11T06:29:04;-0.20;99.90
36132;DHT22;22185;48.738;9.324;2023-02-11T06:31:06;-0.30;99.90
36132;DHT22;22185;48.738;9.324;2023-02-11T06:33:08;-0.30;99.90
36132;DHT22;22185;48.738;9.324;2023-02-11T06:35:10;-0.30;99.90
36132;DHT22;22185;48.738;9.324;2023-02-11T06:37:13;-0.30;99.90
36132;DHT22;22185;48.738;9.324;2023-02-11T06:39:14;-0.20;99.90
36132;DHT22;22185;48.738;9.324;2023-02-11T06:41:17;-0.30;99.90
36132;DHT22;22185;48.738;9.324;2023-02-11T06:43:20;-0.40;99.90
36132;DHT22;22185;48.738;9.324;2023-02-11T06:45:22;-0.30;99.90
36132;DHT22;22185;48.738;9.324;2023-02-11T06:47:24;-0.10;99.90
36132;DHT22;22185;48.738;9.324;2023-02-11T06:49:25;0.10;99.90
36132;DHT22;22185;48.738;9.324;2023-02-11T06:51:27;0.10;99.90
36132;DHT22;22185;48.738;9.324;2023-02-11T06:53:29;0.00;99.90
36132;DHT22;22185;48.738;9.324;2023-02-11T06:55:33;-0.10;99.90
36132;DHT22;22185;48.738;9.324;2023-02-11T06:57:35;-0.10;99.90
36132;DHT22;22185;48.738;9.324;2023-02-11T06:59:36;-0.10;99.90
36132;DHT22;22185;48.738;9.324;2023-02-11T07:01:38;-0.10;99.90
36132;DHT22;22185;48.738;9.324;2023-02-11T07:03:40;0.00;99.90
36132;DHT22;22185;48.738;9.324;2023-02-11T07:05:43;0.00;99.90
36132;DHT22;22185;48.738;9.324;2023-02-11T07:07:45;-0.10;99.90
36132;DHT22;22185;48.738;9.324;2023-02-11T07:09:47;-0.10;99.90
36132;DHT22;22185;48.738;9.324;2023-02-11T07:11:48;0.00;99.90
36132;DHT22;22185;48.738;9.324;2023-02-11T07:13:50;0.00;99.90
36132;DHT22;22185;48.738;9.324;2023-02-11T07:15:52;-0.10;99.90
36132;DHT22;22185;48.738;9.324;2023-02-11T07:17:54;0.00;99.90
36132;DHT22;22185;48.738;9.324;2023-02-11T07:19:56;0.00;99.90
36132;DHT22;22185;48.738;9.324;2023-02-11T07:21:58;0.20;99.90
36132;DHT22;22185;48.738;9.324;2023-02-11T07:24:00;0.30;99.90
36132;DHT22;22185;48.738;9.324;2023-02-11T07:26:03;0.30;99.90
36132;DHT22;22185;48.738;9.324;2023-02-11T07:28:04;0.30;99.90
36132;DHT22;22185;48.738;9.324;2023-02-11T07:30:06;0.30;99.90
36132;DHT22;22185;48.738;9.324;2023-02-11T07:32:08;0.30;99.90
36132;DHT22;22185;48.738;9.324;2023-02-11T07:34:10;0.30;99.90
36132;DHT22;22185;48.738;9.324;2023-02-11T07:36:12;0.30;99.90
36132;DHT22;22185;48.738;9.324;2023-02-11T07:38:14;0.40;99.90
36132;DHT22;22185;48.738;9.324;2023-02-11T07:40:16;0.30;99.90
36132;DHT22;22185;48.738;9.324;2023-02-11T07:42:18;0.40;99.90
36132;DHT22;22185;48.738;9.324;2023-02-11T07:44:19;0.40;99.90
36132;DHT22;22185;48.738;9.324;2023-02-11T07:46:22;0.40;99.90
36132;DHT22;22185;48.738;9.324;2023-02-11T07:48:24;0.40;99.90
36132;DHT22;22185;48.738;9.324;2023-02-11T07:50:26;0.50;99.90
36132;DHT22;22185;48.738;9.324;2023-02-11T07:52:28;0.60;99.90
36132;DHT22;22185;48.738;9.324;2023-02-11T07:54:30;0.70;99.90
36132;DHT22;22185;48.738;9.324;2023-02-11T07:56:32;0.80;99.90
36132;DHT22;22185;48.738;9.324;2023-02-11T07:58:33;0.80;99.90
36132;DHT22;22185;48.738;9.324;2023-02-11T08:00:35;0.90;99.90
36132;DHT22;22185;48.738;9.324;2023-02-11T08:02:37;0.90;99.90
36132;DHT22;22185;48.738;9.324;2023-02-11T08:04:39;0.90;99.90
36132;DHT22;22185;48.738;9.324;2023-02-11T08:06:41;1.00;99.90
36132;DHT22;22185;48.738;9.324;2023-02-11T08:08:43;1.00;99.90
36132;DHT22;22185;48.738;9.324;2023-02-11T08:10:45;1.00;99.90
36132;DHT22;22185;48.738;9.324;2023-02-11T08:12:47;1.10;99.90
36132;DHT22;22185;48.738;9.324;2023-02-11T08:14:48;1.00;99.90
36132;DHT22;22185;48.738;9.324;2023-02-11T08:16:50;0.90;99.90
36132;DHT22;22185;48.738;9.324;2023-02-11T08:18:54;1.00;99.90
36132;DHT22;22185;48.738;9.324;2023-02-11T08:20:56;1.10;99.90
36132;DHT22;22185;48.738;9.324;2023-02-11T08:22:57;1.20;99.90
36132;DHT22;22185;48.738;9.324;2023-02-11T08:24:59;1.10;99.90
36132;DHT22;22185;48.738;9.324;2023-02-11T08:27:02;1.30;99.90
36132;DHT22;22185;48.738;9.324;2023-02-11T08:29:10;1.30;99.90
36132;DHT22;22185;48.738;9.324;2023-02-11T08:31:17;1.40;99.90
36132;DHT22;22185;48.738;9.324;2023-02-11T08:33:20;1.50;99.90
36132;DHT22;22185;48.738;9.324;2023-02-11T08:35:21;1.40;99.90
36132;DHT22;22185;48.738;9.324;2023-02-11T08:37:23;1.40;99.90
36132;DHT22;22185;48.738;9.324;2023-02-11T08:39:25;1.40;99.90
36132;DHT22;22185;48.738;9.324;2023-02-11T08:41:26;1.50;99.90
36132;DHT22;22185;48.738;9.324;2023-02-11T08:43:28;1.50;99.90
36132;DHT22;22185;48.738;9.324;2023-02-11T08:45:30;1.50;99.90
36132;DHT22;22185;48.738;9.324;2023-02-11T08:47:32;1.50;99.90
36132;DHT22;22185;48.738;9.324;2023-02-11T08:49:34;1.40;99.90
36132;DHT22;22185;48.738;9.324;2023-02-11T08:51:36;1.50;99.90
36132;DHT22;22185;48.738;9.324;2023-02-11T08:53:38;1.50;99.90
36132;DHT22;22185;48.738;9.324;2023-02-11T08:55:40;1.50;99.90
36132;DHT22;22185;48.738;9.324;2023-02-11T08:57:48;1.50;99.90
36132;DHT22;22185;48.738;9.324;2023-02-11T08:59:49;1.50;99.90
36132;DHT22;22185;48.738;9.324;2023-02-11T09:01:51;1.50;99.90
36132;DHT22;22185;48.738;9.324;2023-02-11T09:03:53;1.60;99.90
36132;DHT22;22185;48.738;9.324;2023-02-11T09:05:55;1.60;99.90
36132;DHT22;22185;48.738;9.324;2023-02-11T09:07:57;1.60;99.90
36132;DHT22;22185;48.738;9.324;2023-02-11T09:09:59;1.70;99.90
36132;DHT22;22185;48.738;9.324;2023-02-11T09:12:00;1.70;99.90
36132;DHT22;22185;48.738;9.324;2023-02-11T09:14:02;1.80;99.90
36132;DHT22;22185;48.738;9.324;2023-02-11T09:16:05;1.90;99.90
36132;DHT22;22185;48.738;9.324;2023-02-11T09:18:06;2.00;99.90
36132;DHT22;22185;48.738;9.324;2023-02-11T09:20:08;2.10;99.90
36132;DHT22;22185;48.738;9.324;2023-02-11T09:22:11;2.20;99.90
36132;DHT22;22185;48.738;9.324;2023-02-11T09:24:13;2.20;99.90
36132;DHT22;22185;48.738;9.324;2023-02-11T09:28:17;2.30;99.90
36132;DHT22;22185;48.738;9.324;2023-02-11T09:30:19;2.30;99.90
36132;DHT22;22185;48.738;9.324;2023-02-11T09:32:21;2.50;99.90
36132;DHT22;22185;48.738;9.324;2023-02-11T09:34:23;2.70;99.90
36132;DHT22;22185;48.738;9.324;2023-02-11T09:36:26;2.80;99.90
36132;DHT22;22185;48.738;9.324;2023-02-11T09:38:29;3.00;99.90
36132;DHT22;22185;48.738;9.324;2023-02-11T09:40:30;3.10;99.90
36132;DHT22;22185;48.738;9.324;2023-02-11T09:42:46;3.30;99.90
36132;DHT22;22185;48.738;9.324;2023-02-11T09:44:48;3.40;99.90
36132;DHT22;22185;48.738;9.324;2023-02-11T09:46:54;3.50;99.90
36132;DHT22;22185;48.738;9.324;2023-02-11T09:48:56;3.50;99.90
36132;DHT22;22185;48.738;9.324;2023-02-11T09:50:59;3.20;99.90
36132;DHT22;22185;48.738;9.324;2023-02-11T09:53:24;3.20;99.90
36132;DHT22;22185;48.738;9.324;2023-02-11T09:57:56;3.40;99.90
36132;DHT22;22185;48.738;9.324;2023-02-11T09:59:58;3.70;99.90
36132;DHT22;22185;48.738;9.324;2023-02-11T10:02:01;3.80;99.90
36132;DHT22;22185;48.738;9.324;2023-02-11T10:14:47;4.40;99.90
36132;DHT22;22185;48.738;9.324;2023-02-11T10:23:53;4.90;99.90
36132;DHT22;22185;48.738;9.324;2023-02-11T10:25:56;5.10;99.90
36132;DHT22;22185;48.738;9.324;2023-02-11T10:28:00;5.10;99.90
36132;DHT22;22185;48.738;9.324;2023-02-11T10:30:05;5.20;99.90
36132;DHT22;22185;48.738;9.324;2023-02-11T10:32:21;5.50;99.90
36132;DHT22;22185;48.738;9.324;2023-02-11T10:34:25;5.70;99.90
36132;DHT22;22185;48.738;9.324;2023-02-11T10:36:27;5.70;99.90
36132;DHT22;22185;48.738;9.324;2023-02-11T10:38:30;5.90;99.90
36132;DHT22;22185;48.738;9.324;2023-02-11T10:40:34;6.00;99.90
36132;DHT22;22185;48.738;9.324;2023-02-11T10:42:35;6.20;99.90
36132;DHT22;22185;48.738;9.324;2023-02-11T10:44:38;6.30;99.90
36132;DHT22;22185;48.738;9.324;2023-02-11T10:46:42;6.30;99.90
36132;DHT22;22185;48.738;9.324;2023-02-11T10:48:44;6.30;99.90
36132;DHT22;22185;48.738;9.324;2023-02-11T10:50:47;6.20;99.90
36132;DHT22;22185;48.738;9.324;2023-02-11T10:52:49;6.20;99.90
36132;DHT22;22185;48.738;9.324;2023-02-11T10:54:58;6.60;99.90
36132;DHT22;22185;48.738;9.324;2023-02-11T10:57:00;6.80;99.90
36132;DHT22;22185;48.738;9.324;2023-02-11T11:01:22;6.90;99.90
36132;DHT22;22185;48.738;9.324;2023-02-11T11:03:26;7.10;99.90
36132;DHT22;22185;48.738;9.324;2023-02-11T11:05:33;7.30;99.90
36132;DHT22;22185;48.738;9.324;2023-02-11T11:07:35;7.20;99.90
36132;DHT22;22185;48.738;9.324;2023-02-11T11:09:45;7.40;99.90
36132;DHT22;22185;48.738;9.324;2023-02-11T11:11:51;7.50;99.90
36132;DHT22;22185;48.738;9.324;2023-02-11T11:16:05;8.00;99.90
36132;DHT22;22185;48.738;9.324;2023-02-11T11:20:29;7.90;99.90
36132;DHT22;22185;48.738;9.324;2023-02-11T11:22:34;8.30;99.90
36132;DHT22;22185;48.738;9.324;2023-02-11T11:24:42;8.60;99.90
36132;DHT22;22185;48.738;9.324;2023-02-11T11:26:46;8.70;99.90
36132;DHT22;22185;48.738;9.324;2023-02-11T11:30:50;9.20;99.90
36132;DHT22;22185;48.738;9.324;2023-02-11T11:32:53;9.10;99.90
36132;DHT22;22185;48.738;9.324;2023-02-11T11:34:56;8.80;99.90
36132;DHT22;22185;48.738;9.324;2023-02-11T11:37:01;9.00;99.90
36132;DHT22;22185;48.738;9.324;2023-02-11T11:39:16;9.40;99.90
36132;DHT22;22185;48.738;9.324;2023-02-11T11:41:32;8.70;99.90
36132;DHT22;22185;48.738;9.324;2023-02-11T11:43:37;9.30;99.90
36132;DHT22;22185;48.738;9.324;2023-02-11T11:45:39;9.80;99.90
36132;DHT22;22185;48.738;9.324;2023-02-11T11:50:09;9.20;99.90
36132;DHT22;22185;48.738;9.324;2023-02-11T11:54:20;10.10;99.90
36132;DHT22;22185;48.738;9.324;2023-02-11T11:56:26;10.40;99.90
36132;DHT22;22185;48.738;9.324;2023-02-11T11:58:30;10.70;99.90
36132;DHT22;22185;48.738;9.324;2023-02-11T12:00:57;10.30;99.90
36132;DHT22;22185;48.738;9.324;2023-02-11T12:05:16;10.00;99.90
36132;DHT22;22185;48.738;9.324;2023-02-11T12:07:32;10.50;99.90
36132;DHT22;22185;48.738;9.324;2023-02-11T12:14:14;11.40;99.90
36132;DHT22;22185;48.738;9.324;2023-02-11T12:23:19;11.80;99.90
36132;DHT22;22185;48.738;9.324;2023-02-11T12:45:16;10.20;99.90
36132;DHT22;22185;48.738;9.324;2023-02-11T12:49:35;9.80;99.90
36132;DHT22;22185;48.738;9.324;2023-02-11T12:53:54;10.40;99.90
36132;DHT22;22185;48.738;9.324;2023-02-11T12:56:04;10.50;99.90
36132;DHT22;22185;48.738;9.324;2023-02-11T12:58:06;10.00;99.90
36132;DHT22;22185;48.738;9.324;2023-02-11T13:00:22;10.40;99.90
36132;DHT22;22185;48.738;9.324;2023-02-11T13:06:33;10.40;99.90
36132;DHT22;22185;48.738;9.324;2023-02-11T13:10:42;10.40;99.90
36132;DHT22;22185;48.738;9.324;2023-02-11T13:12:47;10.60;99.90
36132;DHT22;22185;48.738;9.324;2023-02-11T13:15:11;10.50;99.90
36132;DHT22;22185;48.738;9.324;2023-02-11T13:17:15;10.50;99.90
36132;DHT22;22185;48.738;9.324;2023-02-11T13:23:37;10.40;99.90
36132;DHT22;22185;48.738;9.324;2023-02-11T13:31:55;10.00;99.90
36132;DHT22;22185;48.738;9.324;2023-02-11T13:33:57;10.10;99.90
36132;DHT22;22185;48.738;9.324;2023-02-11T13:38:05;10.60;99.90
36132;DHT22;22185;48.738;9.324;2023-02-11T13:40:21;11.20;99.90
36132;DHT22;22185;48.738;9.324;2023-02-11T13:42:23;11.80;99.90
36132;DHT22;22185;48.738;9.324;2023-02-11T13:44:25;11.50;99.90
36132;DHT22;22185;48.738;9.324;2023-02-11T13:46:28;11.40;99.90
36132;DHT22;22185;48.738;9.324;2023-02-11T13:48:32;12.20;99.90
36132;DHT22;22185;48.738;9.324;2023-02-11T13:50:37;12.00;99.90
36132;DHT22;22185;48.738;9.324;2023-02-11T13:52:40;12.00;99.90
36132;DHT22;22185;48.738;9.324;2023-02-11T13:54:45;11.90;99.90
36132;DHT22;22185;48.738;9.324;2023-02-11T13:57:14;11.70;99.90
36132;DHT22;22185;48.738;9.324;2023-02-11T14:02:00;10.40;99.90
36132;DHT22;22185;48.738;9.324;2023-02-11T14:04:23;10.30;99.90
36132;DHT22;22185;48.738;9.324;2023-02-11T14:07:05;10.60;99.90
36132;DHT22;22185;48.738;9.324;2023-02-11T14:20:34;12.30;99.90
36132;DHT22;22185;48.738;9.324;2023-02-11T14:22:42;13.10;99.90
36132;DHT22;22185;48.738;9.324;2023-02-11T14:31:39;13.50;99.90
36132;DHT22;22185;48.738;9.324;2023-02-11T14:40:31;13.10;99.90
36132;DHT22;22185;48.738;9.324;2023-02-11T14:42:34;12.00;99.90
36132;DHT22;22185;48.738;9.324;2023-02-11T14:44:37;11.60;99.90
36132;DHT22;22185;48.738;9.324;2023-02-11T14:46:42;11.80;99.90
36132;DHT22;22185;48.738;9.324;2023-02-11T14:48:45;11.90;99.90
36132;DHT22;22185;48.738;9.324;2023-02-11T14:50:51;12.10;99.90
36132;DHT22;22185;48.738;9.324;2023-02-11T14:52:54;12.00;99.90
36132;DHT22;22185;48.738;9.324;2023-02-11T15:59:45;9.30;99.90
36132;DHT22;22185;48.738;9.324;2023-02-11T16:01:47;9.20;99.90
36132;DHT22;22185;48.738;9.324;2023-02-11T16:03:49;9.10;99.90
36132;DHT22;22185;48.738;9.324;2023-02-11T16:05:51;9.10;99.90
36132;DHT22;22185;48.738;9.324;2023-02-11T16:07:53;8.90;99.90
36132;DHT22;22185;48.738;9.324;2023-02-11T16:09:56;8.90;99.90
36132;DHT22;22185;48.738;9.324;2023-02-11T16:11:59;8.80;99.90
36132;DHT22;22185;48.738;9.324;2023-02-11T16:14:16;8.60;99.90
36132;DHT22;22185;48.738;9.324;2023-02-11T16:16:22;8.50;99.90
36132;DHT22;22185;48.738;9.324;2023-02-11T16:18:32;8.40;99.90
36132;DHT22;22185;48.738;9.324;2023-02-11T16:20:39;8.40;99.90
36132;DHT22;22185;48.738;9.324;2023-02-11T16:22:41;8.40;99.90
36132;DHT22;22185;48.738;9.324;2023-02-11T16:24:46;8.20;99.90
36132;DHT22;22185;48.738;9.324;2023-02-11T16:26:49;8.10;99.90
36132;DHT22;22185;48.738;9.324;2023-02-11T16:28:57;8.10;99.90
36132;DHT22;22185;48.738;9.324;2023-02-11T16:31:02;8.00;99.90
36132;DHT22;22185;48.738;9.324;2023-02-11T16:33:04;8.00;99.90
36132;DHT22;22185;48.738;9.324;2023-02-11T16:35:06;8.00;99.90
36132;DHT22;22185;48.738;9.324;2023-02-11T16:37:11;8.00;99.90
36132;DHT22;22185;48.738;9.324;2023-02-11T16:39:15;8.00;99.90
36132;DHT22;22185;48.738;9.324;2023-02-11T16:41:19;7.90;99.90
36132;DHT22;22185;48.738;9.324;2023-02-11T16:43:20;7.80;99.90
36132;DHT22;22185;48.738;9.324;2023-02-11T16:45:22;7.80;99.90
36132;DHT22;22185;48.738;9.324;2023-02-11T16:47:25;7.80;99.90
36132;DHT22;22185;48.738;9.324;2023-02-11T16:49:39;7.70;99.90